createdAt,value
2022-09-17T00:04:05.004Z,100063.47
2022-09-17T00:09:07.889Z,100056.97
2022-09-17T00:14:14.345Z,100057.31
2022-09-17T00:19:18.969Z,100064.06
2022-09-17T00:24:20.906Z,100066.78
2022-09-17T00:29:22.440Z,100068.63
2022-09-17T00:34:23.998Z,100073.84
2022-09-17T00:39:25.542Z,100072.56
2022-09-17T00:44:48.198Z,100073.59
2022-09-17T00:49:55.589Z,100078.63
2022-09-17T00:55:05.879Z,100073.75
2022-09-17T01:07:08.390Z,100092.66
2022-09-17T01:12:12.807Z,100095.88
2022-09-17T01:17:43.499Z,100090.78
2022-09-17T01:23:13.038Z,100098.13
2022-09-17T01:28:21.158Z,100105.41
2022-09-17T01:33:30.684Z,100098.00
2022-09-17T01:38:55.192Z,100098.69
2022-09-17T01:44:11.425Z,100099.38
2022-09-17T01:49:16.609Z,100108.16
2022-09-17T01:54:26.700Z,100112.19
2022-09-17T01:59:36.945Z,100099.56
2022-09-17T02:04:52.263Z,100096.94
2022-09-17T02:10:07.061Z,100097.88
2022-09-17T02:15:15.699Z,100104.63
2022-09-17T02:20:22.819Z,100096.88
2022-09-17T02:25:33.220Z,100088.53
2022-09-17T02:30:35.423Z,100099.56
2022-09-17T02:35:37.909Z,100098.66
2022-09-17T02:40:48.749Z,100087.03
2022-09-17T02:46:15.697Z,100074.88
2022-09-17T02:51:33.199Z,100082.47
2022-09-17T02:56:37.391Z,100092.31
2022-09-17T03:01:45.035Z,100092.63
2022-09-17T03:06:47.655Z,100084.94
2022-09-17T03:11:49.223Z,100095.06
2022-09-17T03:16:50.752Z,100096.38
2022-09-17T03:21:52.267Z,100101.91
2022-09-17T03:26:53.854Z,100107.22
2022-09-17T03:31:55.353Z,100111.19
2022-09-17T03:36:57.077Z,100110.94
2022-09-17T03:41:58.582Z,100115.41
2022-09-17T03:47:00.087Z,100118.06
2022-09-17T03:52:01.982Z,100118.81
2022-09-17T03:57:03.659Z,100129.59
2022-09-17T04:02:05.268Z,100124.88
2022-09-17T04:07:06.858Z,100133.56
2022-09-17T04:12:08.385Z,100134.28
2022-09-17T04:17:09.998Z,100129.50
2022-09-17T04:22:11.571Z,100137.72
2022-09-17T04:27:13.106Z,100129.81
2022-09-17T04:32:14.658Z,100142.34
2022-09-17T04:37:16.404Z,100156.09
2022-09-17T04:42:18.547Z,100161.50
2022-09-17T04:47:20.074Z,100157.06
2022-09-17T04:52:21.565Z,100178.72
2022-09-17T04:57:25.517Z,100185.03
2022-09-17T05:02:27.211Z,100184.81
2022-09-17T05:07:28.770Z,100197.66
2022-09-17T05:12:34.354Z,100189.66
2022-09-17T05:17:36.121Z,100194.69
2022-09-17T05:22:55.801Z,100210.28
2022-09-17T05:27:57.302Z,100216.09
2022-09-17T05:33:01.115Z,100222.88
2022-09-17T05:38:07.757Z,100232.91
2022-09-17T05:43:09.746Z,100237.31
2022-09-17T05:48:15.160Z,100235.41
2022-09-17T05:53:16.785Z,100243.84
2022-09-17T05:58:19.674Z,100251.22
2022-09-17T06:03:22.882Z,100260.25
2022-09-17T06:08:25.974Z,100252.78
2022-09-17T06:13:27.487Z,100265.47
2022-09-17T06:18:30.811Z,100260.25
2022-09-17T06:23:37.231Z,100260.13
2022-09-17T06:28:41.631Z,100262.38
2022-09-17T06:33:43.463Z,100248.28
2022-09-17T06:38:45.300Z,100254.06
2022-09-17T06:43:46.859Z,100252.06
2022-09-17T06:48:48.355Z,100252.22
2022-09-17T06:53:49.987Z,100266.22
2022-09-17T06:58:51.552Z,100252.63
2022-09-17T07:03:53.335Z,100260.47
2022-09-17T07:08:54.903Z,100265.91
2022-09-17T07:13:56.531Z,100261.19
2022-09-17T07:18:58.132Z,100263.59
2022-09-17T07:23:59.646Z,100267.28
2022-09-17T07:29:01.315Z,100278.31
2022-09-17T07:34:03.200Z,100294.91
2022-09-17T07:39:04.911Z,100300.63
2022-09-17T07:44:09.770Z,100310.88
2022-09-17T07:49:11.272Z,100316.16
2022-09-17T07:54:12.820Z,100323.91
2022-09-17T07:59:14.366Z,100336.84
2022-09-17T08:04:15.932Z,100350.53
2022-09-17T08:09:18.564Z,100352.94
2022-09-17T08:14:20.103Z,100358.03
2022-09-17T08:19:22.234Z,100365.91
2022-09-17T08:24:25.887Z,100367.81
2022-09-17T08:29:28.656Z,100369.56
2022-09-17T08:34:31.579Z,100368.69
2022-09-17T08:39:33.096Z,100385.38
2022-09-17T08:44:41.323Z,100391.56
2022-09-17T08:49:53.950Z,100401.00
2022-09-17T08:55:07.667Z,100411.69
2022-09-17T09:00:17.119Z,100413.53
2022-09-17T09:05:22.782Z,100410.50
2022-09-17T09:10:39.371Z,100401.97
2022-09-17T09:15:47.681Z,100392.06
2022-09-17T09:20:55.751Z,100395.31
2022-09-17T09:26:16.075Z,100401.06
2022-09-17T09:31:42.550Z,100414.13
2022-09-17T09:36:45.373Z,100413.13
2022-09-17T09:41:54.320Z,100412.38
2022-09-17T09:47:12.368Z,100416.56
2022-09-17T09:52:42.867Z,100407.72
2022-09-17T09:57:49.852Z,100400.72
2022-09-17T10:03:01.729Z,100401.09
2022-09-17T10:08:14.225Z,100416.94
2022-09-17T10:13:17.739Z,100405.22
2022-09-17T10:18:22.078Z,100410.28
2022-09-17T10:23:26.517Z,100405.31
2022-09-17T10:28:50.406Z,100402.81
2022-09-17T10:34:01.269Z,100397.81
2022-09-17T10:39:28.791Z,100386.59
2022-09-17T10:44:33.550Z,100373.88
2022-09-17T10:49:40.937Z,100365.88
2022-09-17T10:55:19.918Z,100374.53
2022-09-17T11:00:23.556Z,100374.28
2022-09-17T11:05:41.496Z,100365.94
2022-09-17T11:11:01.713Z,100367.25
2022-09-17T11:16:34.256Z,100363.50
2022-09-17T11:21:46.622Z,100336.56
2022-09-17T11:26:57.741Z,100349.88
2022-09-17T11:32:24.106Z,100364.28
2022-09-17T11:37:37.267Z,100345.22
2022-09-17T11:42:56.241Z,100296.03
2022-09-17T11:48:11.864Z,100280.00
2022-09-17T11:53:25.595Z,100304.13
2022-09-17T11:58:56.574Z,100328.69
2022-09-17T12:04:33.698Z,100368.34
2022-09-17T12:09:39.204Z,100315.97
2022-09-17T12:14:51.438Z,100274.25
2022-09-17T12:20:25.031Z,100263.59
2022-09-17T12:25:34.198Z,100279.66
2022-09-17T12:30:44.231Z,100285.97
2022-09-17T12:36:05.253Z,100280.06
2022-09-17T12:41:15.735Z,100275.44
2022-09-17T12:46:30.034Z,100272.31
2022-09-17T12:51:31.555Z,100269.50
2022-09-17T12:56:41.890Z,100269.00
2022-09-17T13:01:52.424Z,100269.28
2022-09-17T13:06:59.623Z,100267.56
2022-09-17T13:12:27.443Z,100271.41
2022-09-17T13:18:27.034Z,100265.47
2022-09-17T13:23:42.271Z,100253.97
2022-09-17T13:28:47.863Z,100253.00
2022-09-17T13:33:55.317Z,100240.84
2022-09-17T13:38:57.038Z,100257.81
2022-09-17T13:43:59.087Z,100266.22
2022-09-17T13:49:04.505Z,100269.25
2022-09-17T13:54:08.984Z,100286.66
2022-09-17T13:59:18.091Z,100291.00
2022-09-17T14:04:35.850Z,100294.72
2022-09-17T14:09:55.189Z,100292.91
2022-09-17T14:14:57.243Z,100290.81
2022-09-17T14:19:59.154Z,100298.28
2022-09-17T14:25:01.756Z,100267.13
2022-09-17T14:30:03.227Z,100251.16
2022-09-17T14:35:17.869Z,100244.31
2022-09-17T14:40:24.048Z,100251.91
2022-09-17T14:45:36.790Z,100237.66
2022-09-17T14:50:38.445Z,100256.22
2022-09-17T14:55:41.407Z,100262.47
2022-09-17T15:00:52.030Z,100273.34
2022-09-17T15:05:54.357Z,100280.47
2022-09-17T15:11:06.763Z,100275.69
2022-09-17T15:16:25.275Z,100277.66
2022-09-17T15:21:35.924Z,100283.38
2022-09-17T15:26:41.547Z,100279.09
2022-09-17T15:31:43.149Z,100281.50
2022-09-17T15:37:04.839Z,100283.34
2022-09-17T15:42:18.061Z,100289.50
2022-09-17T15:47:36.773Z,100286.72
2022-09-17T15:52:38.328Z,100276.25
2022-09-17T15:57:39.880Z,100276.63
2022-09-17T16:02:41.569Z,100272.44
2022-09-17T16:07:45.581Z,100266.88
2022-09-17T16:12:49.622Z,100260.13
2022-09-17T16:17:51.135Z,100272.06
2022-09-17T16:22:53.535Z,100249.56
2022-09-17T16:28:04.205Z,100250.13
2022-09-17T16:33:06.823Z,100226.97
2022-09-17T16:38:09.982Z,100219.44
2022-09-17T16:43:11.552Z,100220.59
2022-09-17T16:48:13.137Z,100212.16
2022-09-17T16:53:14.691Z,100200.22
2022-09-17T16:58:16.394Z,100230.97
2022-09-17T17:03:18.043Z,100211.88
2022-09-17T17:08:19.534Z,100189.59
2022-09-17T17:13:21.076Z,100217.25
2022-09-17T17:18:24.448Z,100233.25
2022-09-17T17:23:25.934Z,100243.50
2022-09-17T17:28:27.473Z,100256.34
2022-09-17T17:33:29.291Z,100268.28
2022-09-17T17:38:30.857Z,100265.88
2022-09-17T17:43:32.626Z,100272.72
2022-09-17T17:48:34.767Z,100276.25
2022-09-17T17:53:37.003Z,100275.34
2022-09-17T17:58:39.650Z,100285.31
2022-09-17T18:03:41.383Z,100285.31
2022-09-17T18:08:44.107Z,100298.75
2022-09-17T18:13:46.007Z,100296.72
2022-09-17T18:18:47.816Z,100296.72
2022-09-17T18:23:50.503Z,100299.44
2022-09-17T18:28:52.633Z,100301.34
2022-09-17T18:33:58.468Z,100388.16
2022-09-17T18:44:26.849Z,100365.59
2022-09-17T18:49:28.358Z,100378.88
2022-09-17T18:54:29.862Z,100376.06
2022-09-17T18:59:36.215Z,100385.50
2022-09-17T19:04:37.701Z,100390.97
2022-09-17T19:09:39.222Z,100395.19
2022-09-17T19:14:40.714Z,100397.69
2022-09-17T19:19:42.207Z,100395.19
2022-09-17T19:24:43.701Z,100401.25
2022-09-17T19:29:45.255Z,100415.13
2022-09-17T19:34:46.841Z,100423.94
2022-09-17T19:39:48.379Z,100424.56
2022-09-17T19:44:49.874Z,100429.56
2022-09-17T19:49:52.436Z,100431.44
2022-09-17T19:54:53.963Z,100442.16
2022-09-17T19:59:55.454Z,100442.78
2022-09-17T20:04:56.968Z,100446.94
2022-09-17T20:09:59.408Z,100444.63
2022-09-17T20:15:00.937Z,100448.75
2022-09-17T20:20:03.495Z,100455.72
2022-09-17T20:25:05.687Z,100462.00
2022-09-17T20:30:07.756Z,100466.44
2022-09-17T20:35:09.571Z,100465.78
2022-09-17T20:40:11.781Z,100460.56
2022-09-17T20:45:13.436Z,100473.00
2022-09-17T20:50:15.021Z,100476.34
2022-09-17T20:55:17.607Z,100486.09
2022-09-17T21:00:21.187Z,100482.53
2022-09-17T21:05:22.740Z,100496.63
2022-09-17T21:10:26.609Z,100493.28
2022-09-17T21:15:28.801Z,100507.16
2022-09-17T21:20:30.301Z,100501.72
2022-09-17T21:25:31.812Z,100510.34
2022-09-17T21:30:33.331Z,100497.47
2022-09-17T21:35:34.893Z,100502.13
2022-09-17T21:40:36.505Z,100507.41
2022-09-17T21:45:40.443Z,100510.75
2022-09-17T21:50:41.973Z,100505.50
2022-09-17T21:55:43.458Z,100510.75
2022-09-17T22:00:44.957Z,100512.41
2022-09-17T22:05:46.529Z,100507.16
2022-09-17T22:10:48.056Z,100507.63
2022-09-17T22:15:58.679Z,100507.16
2022-09-17T22:21:00.713Z,100514.72
2022-09-17T22:26:04.105Z,100515.75
2022-09-17T22:31:09.001Z,100521.00
2022-09-17T22:36:16.403Z,100515.72
2022-09-17T22:41:23.618Z,100530.00
2022-09-17T22:46:27.779Z,100522.66
2022-09-17T22:51:30.454Z,100520.75
2022-09-17T22:56:35.091Z,100519.66
2022-09-17T23:01:37.367Z,100515.06
2022-09-17T23:06:42.039Z,100523.28
2022-09-17T23:11:43.765Z,100515.47
2022-09-17T23:16:47.646Z,100513.38
2022-09-17T23:21:49.269Z,100513.59
2022-09-17T23:26:50.841Z,100523.22
2022-09-17T23:31:52.336Z,100514.81
2022-09-17T23:36:53.848Z,100505.34
2022-09-17T23:41:56.715Z,100519.22
2022-09-17T23:46:58.311Z,100512.50
2022-09-17T23:51:59.858Z,100521.13
2022-09-17T23:57:01.382Z,100508.06
